BAW427 LMML-GMMN
Flight info
| Callsign | BAW427 |
|---|---|
| Flight time | 3h 3m |
| Altitude | 38000 |
| Route | GZO DCT DOBIX DCT SONAK DCT TUC DCT KEMIR UA411 BNA/N0484F400 UA411 FES/N0488F390 DCT SADIC |
| Aircraft | A35K/H-SDE2E3GHIJ3J4J5LM1ORWXY/LB1D1 |
Departure
| Time | 2026-05-06 18:09 |
|---|---|
| Airport | Malta International Airport (LMML) |
Arrival
| Time | 2026-05-06 21:13 |
|---|---|
| Airport | Mohammed V International Airport (GMMN) |
| Time | Latitude | Longitude | Altitude | Speed | Heading |
|---|---|---|---|---|---|
| 2026-05-06 17:28 | 35.84747 | 14.49573 | 265 ft | 0 kts | 359° |
| 2026-05-06 17:54 | 35.84743 | 14.49573 | 292 ft | 3 kts | 2° |
| 2026-05-06 17:55 | 35.84733 | 14.49576 | 264 ft | 4 kts | 356° |
| 2026-05-06 17:55 | 35.84706 | 14.49575 | 264 ft | 4 kts | 4° |
| 2026-05-06 17:55 | 35.84682 | 14.49574 | 264 ft | 1 kts | 359° |
| 2026-05-06 17:56 | 35.84671 | 14.49575 | 270 ft | 3 kts | 339° |
| 2026-05-06 17:56 | 35.84666 | 14.49577 | 269 ft | 0 kts | 329° |
| 2026-05-06 18:03 | 35.84673 | 14.49571 | 264 ft | 3 kts | 330° |
| 2026-05-06 18:03 | 35.84696 | 14.49553 | 264 ft | 5 kts | 326° |
| 2026-05-06 18:03 | 35.84729 | 14.49520 | 264 ft | 7 kts | 319° |
| 2026-05-06 18:03 | 35.84772 | 14.49469 | 264 ft | 10 kts | 315° |
| 2026-05-06 18:04 | 35.84826 | 14.49402 | 264 ft | 12 kts | 314° |
| 2026-05-06 18:04 | 35.84892 | 14.49318 | 264 ft | 15 kts | 314° |
| 2026-05-06 18:04 | 35.84920 | 14.49197 | 264 ft | 16 kts | 261° |
| 2026-05-06 18:04 | 35.84934 | 14.49062 | 264 ft | 17 kts | 295° |
| 2026-05-06 18:05 | 35.84994 | 14.48931 | 264 ft | 19 kts | 302° |
| 2026-05-06 18:05 | 35.85068 | 14.48794 | 268 ft | 19 kts | 304° |
| 2026-05-06 18:05 | 35.85155 | 14.48680 | 274 ft | 18 kts | 327° |
| 2026-05-06 18:05 | 35.85261 | 14.48613 | 278 ft | 18 kts | 330° |
| 2026-05-06 18:06 | 35.85358 | 14.48511 | 278 ft | 19 kts | 315° |
| 2026-05-06 18:06 | 35.85461 | 14.48384 | 278 ft | 22 kts | 315° |
| 2026-05-06 18:06 | 35.85588 | 14.48267 | 278 ft | 24 kts | 323° |
| 2026-05-06 18:06 | 35.85661 | 14.48097 | 278 ft | 14 kts | 272° |
| 2026-05-06 18:07 | 35.85662 | 14.48067 | 278 ft | 1 kts | 272° |
| 2026-05-06 18:07 | 35.85663 | 14.48046 | 278 ft | 4 kts | 272° |
| 2026-05-06 18:07 | 35.85665 | 14.47999 | 278 ft | 7 kts | 273° |
| 2026-05-06 18:07 | 35.85651 | 14.47942 | 278 ft | 7 kts | 237° |
| 2026-05-06 18:08 | 35.85616 | 14.47934 | 278 ft | 5 kts | 169° |
| 2026-05-06 18:08 | 35.85573 | 14.47965 | 278 ft | 12 kts | 140° |
| 2026-05-06 18:08 | 35.85423 | 14.48155 | 278 ft | 64 kts | 134° |
| 2026-05-06 18:08 | 35.84939 | 14.48752 | 266 ft | 132 kts | 135° |
| 2026-05-06 18:09 | 35.84169 | 14.49700 | 461 ft | 172 kts | 126° |
| 2026-05-06 18:09 | 35.83261 | 14.50736 | 1171 ft | 179 kts | 143° |
| 2026-05-06 18:09 | 35.82086 | 14.51034 | 2193 ft | 187 kts | 177° |
| 2026-05-06 18:09 | 35.80807 | 14.50262 | 2516 ft | 230 kts | 219° |
| 2026-05-06 18:10 | 35.79981 | 14.48418 | 2938 ft | 263 kts | 244° |
| 2026-05-06 18:10 | 35.79263 | 14.46291 | 3597 ft | 272 kts | 238° |
| 2026-05-06 18:10 | 35.78590 | 14.44093 | 4491 ft | 278 kts | 250° |
| 2026-05-06 18:10 | 35.78440 | 14.41718 | 5410 ft | 282 kts | 274° |
| 2026-05-06 18:11 | 35.79093 | 14.39408 | 6278 ft | 294 kts | 299° |
| 2026-05-06 18:11 | 35.80002 | 14.38150 | 6829 ft | 300 kts | 320° |
| 2026-05-06 18:11 | 35.82324 | 14.36338 | 8140 ft | 299 kts | 326° |
| 2026-05-06 18:11 | 35.84149 | 14.35042 | 8921 ft | 307 kts | 326° |
| 2026-05-06 18:12 | 35.85991 | 14.33714 | 9933 ft | 306 kts | 326° |
| 2026-05-06 18:12 | 35.87839 | 14.32364 | 10685 ft | 316 kts | 324° |
| 2026-05-06 18:12 | 35.89782 | 14.30923 | 11117 ft | 337 kts | 324° |
| 2026-05-06 18:12 | 35.91837 | 14.29392 | 11504 ft | 356 kts | 324° |
| 2026-05-06 18:13 | 35.94016 | 14.27769 | 11927 ft | 374 kts | 324° |
| 2026-05-06 18:13 | 35.96266 | 14.26094 | 12574 ft | 381 kts | 324° |
| 2026-05-06 18:13 | 35.98548 | 14.24395 | 13381 ft | 384 kts | 323° |
| 2026-05-06 18:13 | 36.00703 | 14.22559 | 14128 ft | 382 kts | 315° |
| 2026-05-06 18:14 | 36.02598 | 14.20276 | 14820 ft | 379 kts | 304° |
| 2026-05-06 18:14 | 36.04078 | 14.17601 | 15517 ft | 376 kts | 293° |
| 2026-05-06 18:14 | 36.05120 | 14.14653 | 16320 ft | 373 kts | 285° |
| 2026-05-06 18:14 | 36.05935 | 14.11614 | 17106 ft | 375 kts | 283° |
| 2026-05-06 18:15 | 36.06663 | 14.08510 | 17918 ft | 377 kts | 282° |
| 2026-05-06 18:15 | 36.07355 | 14.05371 | 18596 ft | 380 kts | 282° |
| 2026-05-06 18:15 | 36.08047 | 14.02192 | 19202 ft | 386 kts | 282° |
| 2026-05-06 18:15 | 36.08743 | 13.99024 | 19790 ft | 391 kts | 282° |
| 2026-05-06 18:16 | 36.09473 | 13.95759 | 20415 ft | 397 kts | 282° |
| 2026-05-06 18:16 | 36.10222 | 13.92457 | 21036 ft | 402 kts | 283° |
| 2026-05-06 18:16 | 36.10988 | 13.89110 | 21676 ft | 407 kts | 283° |
| 2026-05-06 18:16 | 36.11764 | 13.85731 | 22329 ft | 412 kts | 283° |
| 2026-05-06 18:17 | 36.12552 | 13.82303 | 23029 ft | 416 kts | 283° |
| 2026-05-06 18:17 | 36.13347 | 13.78835 | 23626 ft | 422 kts | 283° |
| 2026-05-06 18:17 | 36.14150 | 13.75329 | 24248 ft | 424 kts | 284° |
| 2026-05-06 18:17 | 36.14939 | 13.71880 | 24960 ft | 424 kts | 284° |
| 2026-05-06 18:18 | 36.15741 | 13.68366 | 25670 ft | 425 kts | 284° |
| 2026-05-06 18:18 | 36.16541 | 13.64849 | 26386 ft | 424 kts | 284° |
| 2026-05-06 18:18 | 36.17340 | 13.61334 | 27084 ft | 425 kts | 284° |
| 2026-05-06 18:18 | 36.18136 | 13.57822 | 27777 ft | 425 kts | 285° |
| 2026-05-06 18:19 | 36.18935 | 13.54295 | 28447 ft | 426 kts | 285° |
| 2026-05-06 18:19 | 36.19736 | 13.50751 | 29096 ft | 427 kts | 285° |
| 2026-05-06 18:19 | 36.20535 | 13.47211 | 29834 ft | 425 kts | 285° |
| 2026-05-06 18:19 | 36.21322 | 13.43718 | 30535 ft | 422 kts | 285° |
| 2026-05-06 18:20 | 36.22110 | 13.40217 | 31121 ft | 421 kts | 285° |
| 2026-05-06 18:20 | 36.22881 | 13.36785 | 31786 ft | 416 kts | 285° |
| 2026-05-06 18:20 | 36.23648 | 13.33371 | 32689 ft | 406 kts | 285° |
| 2026-05-06 18:20 | 36.24391 | 13.30056 | 33666 ft | 395 kts | 285° |
| 2026-05-06 18:21 | 36.25118 | 13.26814 | 34454 ft | 388 kts | 284° |
| 2026-05-06 18:21 | 36.25842 | 13.23578 | 34700 ft | 392 kts | 284° |
| 2026-05-06 18:21 | 36.26572 | 13.20300 | 34865 ft | 397 kts | 284° |
| 2026-05-06 18:21 | 36.27304 | 13.17008 | 35180 ft | 398 kts | 284° |
| 2026-05-06 18:22 | 36.28037 | 13.13710 | 35572 ft | 397 kts | 284° |
| 2026-05-06 18:22 | 36.28766 | 13.10427 | 36009 ft | 394 kts | 284° |
| 2026-05-06 18:22 | 36.29482 | 13.07200 | 36409 ft | 393 kts | 284° |
| 2026-05-06 18:22 | 36.30202 | 13.03949 | 36745 ft | 393 kts | 283° |
| 2026-05-06 18:23 | 36.30923 | 13.00689 | 37067 ft | 392 kts | 283° |
| 2026-05-06 18:23 | 36.31644 | 12.97426 | 37414 ft | 392 kts | 283° |
| 2026-05-06 18:23 | 36.32361 | 12.94172 | 37730 ft | 391 kts | 283° |
| 2026-05-06 18:23 | 36.33076 | 12.90925 | 37861 ft | 392 kts | 283° |
| 2026-05-06 18:24 | 36.34511 | 12.84396 | 37863 ft | 393 kts | 283° |
| 2026-05-06 18:24 | 36.35932 | 12.77912 | 37864 ft | 393 kts | 283° |
| 2026-05-06 18:25 | 36.37363 | 12.71368 | 37866 ft | 393 kts | 283° |
| 2026-05-06 18:25 | 36.38788 | 12.64831 | 37865 ft | 393 kts | 283° |
| 2026-05-06 18:26 | 36.40212 | 12.58276 | 37864 ft | 393 kts | 283° |
| 2026-05-06 18:26 | 36.41623 | 12.51763 | 37857 ft | 393 kts | 283° |
| 2026-05-06 18:27 | 36.43040 | 12.45206 | 37862 ft | 393 kts | 283° |
| 2026-05-06 18:27 | 36.44451 | 12.38656 | 37869 ft | 393 kts | 282° |
| 2026-05-06 18:28 | 36.45864 | 12.32076 | 37861 ft | 395 kts | 282° |
| 2026-05-06 18:28 | 36.47267 | 12.25531 | 37864 ft | 395 kts | 282° |
| 2026-05-06 18:29 | 36.48675 | 12.18938 | 37867 ft | 395 kts | 282° |
| 2026-05-06 18:29 | 36.50081 | 12.12337 | 37858 ft | 395 kts | 282° |
| 2026-05-06 18:30 | 36.51410 | 12.05714 | 37859 ft | 395 kts | 281° |
| 2026-05-06 18:30 | 36.52656 | 11.99131 | 37864 ft | 395 kts | 281° |
| 2026-05-06 18:31 | 36.53915 | 11.92489 | 37867 ft | 395 kts | 281° |
| 2026-05-06 18:31 | 36.55188 | 11.85839 | 37870 ft | 395 kts | 281° |
| 2026-05-06 18:32 | 36.56461 | 11.79195 | 37869 ft | 395 kts | 281° |
| 2026-05-06 18:32 | 36.57729 | 11.72556 | 37872 ft | 395 kts | 281° |
| 2026-05-06 18:33 | 36.58987 | 11.65946 | 37875 ft | 395 kts | 280° |
| 2026-05-06 18:33 | 36.60244 | 11.59323 | 37879 ft | 393 kts | 280° |
| 2026-05-06 18:34 | 36.61496 | 11.52698 | 37880 ft | 393 kts | 280° |
| 2026-05-06 18:34 | 36.62747 | 11.46080 | 37878 ft | 393 kts | 280° |
| 2026-05-06 18:35 | 36.63979 | 11.39503 | 37883 ft | 393 kts | 280° |
| 2026-05-06 18:35 | 36.65214 | 11.32884 | 37883 ft | 393 kts | 280° |
| 2026-05-06 18:36 | 36.66447 | 11.26258 | 37884 ft | 393 kts | 280° |
| 2026-05-06 18:36 | 36.67678 | 11.19625 | 37883 ft | 393 kts | 280° |
| 2026-05-06 18:37 | 36.68699 | 11.14111 | 37885 ft | 393 kts | 280° |
| 2026-05-06 18:37 | 36.70121 | 11.06410 | 37884 ft | 393 kts | 280° |
| 2026-05-06 18:38 | 36.71341 | 10.99771 | 37889 ft | 393 kts | 280° |
| 2026-05-06 18:38 | 36.72352 | 10.94255 | 37891 ft | 393 kts | 279° |
| 2026-05-06 18:39 | 36.73758 | 10.86557 | 37930 ft | 393 kts | 280° |
| 2026-05-06 18:40 | 36.75572 | 10.76584 | 37904 ft | 394 kts | 279° |
| 2026-05-06 18:40 | 36.76576 | 10.71041 | 37909 ft | 395 kts | 279° |
| 2026-05-06 18:41 | 36.77781 | 10.64368 | 37897 ft | 394 kts | 279° |
| 2026-05-06 18:41 | 36.79175 | 10.56626 | 37922 ft | 394 kts | 279° |
| 2026-05-06 18:42 | 36.80168 | 10.51088 | 37902 ft | 394 kts | 279° |
| 2026-05-06 18:42 | 36.81358 | 10.44429 | 37900 ft | 393 kts | 279° |
| 2026-05-06 18:43 | 36.82203 | 10.37730 | 37901 ft | 391 kts | 272° |
| 2026-05-06 18:43 | 36.82477 | 10.29869 | 37912 ft | 390 kts | 270° |
| 2026-05-06 18:44 | 36.82562 | 10.24240 | 37911 ft | 390 kts | 270° |
| 2026-05-06 18:44 | 36.82657 | 10.17471 | 37914 ft | 390 kts | 270° |
| 2026-05-06 18:45 | 36.82765 | 10.10715 | 37913 ft | 390 kts | 270° |
| 2026-05-06 18:45 | 36.82880 | 10.03953 | 37909 ft | 390 kts | 270° |
| 2026-05-06 18:46 | 36.82991 | 9.97201 | 37909 ft | 390 kts | 270° |
| 2026-05-06 18:46 | 36.83098 | 9.90481 | 37908 ft | 390 kts | 270° |
| 2026-05-06 18:47 | 36.83201 | 9.83736 | 37904 ft | 390 kts | 270° |
| 2026-05-06 18:47 | 36.83300 | 9.76989 | 37906 ft | 388 kts | 269° |
| 2026-05-06 18:48 | 36.83396 | 9.70281 | 37913 ft | 386 kts | 269° |
| 2026-05-06 18:48 | 36.83486 | 9.63629 | 37914 ft | 388 kts | 269° |
| 2026-05-06 18:49 | 36.83574 | 9.56805 | 37909 ft | 398 kts | 269° |
| 2026-05-06 18:49 | 36.83660 | 9.49875 | 37912 ft | 400 kts | 269° |
| 2026-05-06 18:50 | 36.83743 | 9.42956 | 37916 ft | 398 kts | 269° |
| 2026-05-06 18:50 | 36.83722 | 9.36104 | 37912 ft | 397 kts | 267° |
| 2026-05-06 18:51 | 36.83528 | 9.29238 | 37906 ft | 396 kts | 266° |
| 2026-05-06 18:51 | 36.83332 | 9.22359 | 37912 ft | 396 kts | 266° |
| 2026-05-06 18:52 | 36.83161 | 9.15493 | 37912 ft | 397 kts | 266° |
| 2026-05-06 18:52 | 36.83000 | 9.08659 | 37937 ft | 397 kts | 266° |
| 2026-05-06 18:53 | 36.82834 | 9.01799 | 37915 ft | 396 kts | 266° |
| 2026-05-06 18:53 | 36.82683 | 8.94933 | 37912 ft | 395 kts | 268° |
| 2026-05-06 18:54 | 36.82827 | 8.88079 | 37911 ft | 396 kts | 270° |
| 2026-05-06 18:54 | 36.83060 | 8.81201 | 37912 ft | 396 kts | 269° |
| 2026-05-06 18:55 | 36.83249 | 8.74386 | 37917 ft | 396 kts | 269° |
| 2026-05-06 18:55 | 36.83401 | 8.67509 | 37909 ft | 395 kts | 269° |
| 2026-05-06 18:56 | 36.83513 | 8.60679 | 37926 ft | 394 kts | 268° |
| 2026-05-06 18:56 | 36.83498 | 8.53847 | 37923 ft | 393 kts | 267° |
| 2026-05-06 18:57 | 36.83465 | 8.47073 | 37927 ft | 394 kts | 267° |
| 2026-05-06 18:57 | 36.83447 | 8.40249 | 37927 ft | 393 kts | 267° |
| 2026-05-06 18:58 | 36.83438 | 8.33428 | 37939 ft | 394 kts | 267° |
| 2026-05-06 18:58 | 36.83427 | 8.26593 | 37927 ft | 394 kts | 267° |
| 2026-05-06 18:59 | 36.83412 | 8.19822 | 37925 ft | 394 kts | 267° |
| 2026-05-06 18:59 | 36.83391 | 8.12991 | 37923 ft | 393 kts | 267° |
| 2026-05-06 19:00 | 36.83367 | 8.06176 | 37917 ft | 393 kts | 267° |
| 2026-05-06 19:00 | 36.83339 | 7.99348 | 37916 ft | 393 kts | 267° |
| 2026-05-06 19:01 | 36.83307 | 7.92575 | 37913 ft | 394 kts | 267° |
| 2026-05-06 19:01 | 36.83271 | 7.85719 | 37913 ft | 395 kts | 267° |
| 2026-05-06 19:02 | 36.83228 | 7.78874 | 37912 ft | 395 kts | 266° |
| 2026-05-06 19:02 | 36.83157 | 7.72016 | 37914 ft | 395 kts | 266° |
| 2026-05-06 19:03 | 36.83078 | 7.65211 | 37913 ft | 395 kts | 266° |
| 2026-05-06 19:03 | 36.82997 | 7.58353 | 37945 ft | 395 kts | 266° |
| 2026-05-06 19:04 | 36.82914 | 7.51517 | 37929 ft | 394 kts | 266° |
| 2026-05-06 19:04 | 36.82827 | 7.44676 | 37929 ft | 394 kts | 266° |
| 2026-05-06 19:05 | 36.82738 | 7.37890 | 37929 ft | 394 kts | 266° |
| 2026-05-06 19:05 | 36.82644 | 7.31048 | 37927 ft | 394 kts | 266° |
| 2026-05-06 19:06 | 36.82546 | 7.24223 | 37926 ft | 394 kts | 266° |
| 2026-05-06 19:06 | 36.82443 | 7.17374 | 37936 ft | 394 kts | 266° |
| 2026-05-06 19:07 | 36.82338 | 7.10594 | 37935 ft | 394 kts | 266° |
| 2026-05-06 19:07 | 36.82228 | 7.03746 | 37938 ft | 395 kts | 266° |
| 2026-05-06 19:08 | 36.82114 | 6.96907 | 37930 ft | 395 kts | 266° |
| 2026-05-06 19:08 | 36.81999 | 6.90064 | 37942 ft | 395 kts | 266° |
| 2026-05-06 19:09 | 36.81880 | 6.83282 | 37954 ft | 395 kts | 266° |
| 2026-05-06 19:09 | 36.81753 | 6.76469 | 37926 ft | 388 kts | 266° |
| 2026-05-06 19:10 | 36.81629 | 6.69834 | 37921 ft | 380 kts | 266° |
| 2026-05-06 19:10 | 36.81500 | 6.63265 | 37922 ft | 378 kts | 266° |
| 2026-05-06 19:11 | 36.81368 | 6.56760 | 37928 ft | 378 kts | 266° |
| 2026-05-06 19:11 | 36.81232 | 6.50200 | 37907 ft | 379 kts | 266° |
| 2026-05-06 19:12 | 36.81088 | 6.43647 | 37941 ft | 378 kts | 266° |
| 2026-05-06 19:12 | 36.80944 | 6.37099 | 37911 ft | 377 kts | 266° |
| 2026-05-06 19:13 | 36.80804 | 6.30565 | 37933 ft | 377 kts | 265° |
| 2026-05-06 19:13 | 36.80658 | 6.24068 | 37921 ft | 377 kts | 265° |
| 2026-05-06 19:14 | 36.80504 | 6.17538 | 37912 ft | 377 kts | 265° |
| 2026-05-06 19:14 | 36.80346 | 6.10979 | 37921 ft | 382 kts | 265° |
| 2026-05-06 19:15 | 36.80183 | 6.04322 | 37911 ft | 391 kts | 265° |
| 2026-05-06 19:15 | 36.80014 | 5.97525 | 37912 ft | 392 kts | 265° |
| 2026-05-06 19:16 | 36.79843 | 5.90740 | 37914 ft | 392 kts | 265° |
| 2026-05-06 19:16 | 36.79398 | 5.83977 | 37937 ft | 391 kts | 262° |
| 2026-05-06 19:17 | 36.78750 | 5.77262 | 37939 ft | 390 kts | 261° |
| 2026-05-06 19:17 | 36.78071 | 5.70593 | 37948 ft | 390 kts | 261° |
| 2026-05-06 19:18 | 36.77386 | 5.63896 | 37931 ft | 390 kts | 261° |
| 2026-05-06 19:18 | 36.76701 | 5.57183 | 37923 ft | 390 kts | 261° |
| 2026-05-06 19:19 | 36.76016 | 5.50482 | 37925 ft | 390 kts | 261° |
| 2026-05-06 19:19 | 36.75331 | 5.43818 | 37931 ft | 390 kts | 261° |
| 2026-05-06 19:20 | 36.74639 | 5.37124 | 37929 ft | 390 kts | 261° |
| 2026-05-06 19:20 | 36.73942 | 5.30420 | 37947 ft | 390 kts | 261° |
| 2026-05-06 19:21 | 36.73242 | 5.23734 | 37937 ft | 389 kts | 261° |
| 2026-05-06 19:21 | 36.72543 | 5.17091 | 37941 ft | 389 kts | 261° |
| 2026-05-06 19:22 | 36.71836 | 5.10405 | 37942 ft | 389 kts | 261° |
| 2026-05-06 19:22 | 36.71218 | 5.03701 | 37929 ft | 390 kts | 264° |
| 2026-05-06 19:23 | 36.71004 | 4.96937 | 37934 ft | 391 kts | 265° |
| 2026-05-06 19:23 | 36.70849 | 4.90210 | 37934 ft | 391 kts | 265° |
| 2026-05-06 19:24 | 36.70627 | 4.83458 | 37938 ft | 391 kts | 264° |
| 2026-05-06 19:24 | 36.70371 | 4.76767 | 37936 ft | 383 kts | 264° |
| 2026-05-06 19:25 | 36.70106 | 4.70158 | 37931 ft | 382 kts | 264° |
| 2026-05-06 19:25 | 36.69837 | 4.63588 | 37932 ft | 383 kts | 264° |
| 2026-05-06 19:26 | 36.69565 | 4.56970 | 37954 ft | 382 kts | 264° |
| 2026-05-06 19:26 | 36.69289 | 4.50358 | 37933 ft | 383 kts | 264° |
| 2026-05-06 19:27 | 36.69010 | 4.43725 | 37935 ft | 383 kts | 264° |
| 2026-05-06 19:27 | 36.68731 | 4.37140 | 37933 ft | 383 kts | 264° |
| 2026-05-06 19:28 | 36.68446 | 4.30519 | 37934 ft | 383 kts | 264° |
| 2026-05-06 19:28 | 36.68157 | 4.23895 | 37933 ft | 383 kts | 264° |
| 2026-05-06 19:29 | 36.67863 | 4.17282 | 37942 ft | 384 kts | 264° |
| 2026-05-06 19:29 | 36.67561 | 4.10592 | 37912 ft | 387 kts | 264° |
| 2026-05-06 19:30 | 36.67261 | 4.03975 | 37934 ft | 384 kts | 264° |
| 2026-05-06 19:30 | 36.66958 | 3.97350 | 37937 ft | 383 kts | 264° |
| 2026-05-06 19:31 | 36.66651 | 3.90745 | 37934 ft | 382 kts | 263° |
| 2026-05-06 19:31 | 36.66186 | 3.80884 | 37952 ft | 382 kts | 263° |
| 2026-05-06 19:32 | 36.65870 | 3.74268 | 37937 ft | 385 kts | 264° |
| 2026-05-06 19:32 | 36.65547 | 3.67603 | 37934 ft | 386 kts | 263° |
| 2026-05-06 19:33 | 36.65257 | 3.60925 | 38043 ft | 389 kts | 266° |
| 2026-05-06 19:33 | 36.65374 | 3.57555 | 38300 ft | 391 kts | 271° |
| 2026-05-06 19:33 | 36.65659 | 3.54183 | 38569 ft | 392 kts | 271° |
| 2026-05-06 19:34 | 36.65980 | 3.50869 | 38765 ft | 393 kts | 272° |
| 2026-05-06 19:34 | 36.66336 | 3.47486 | 38947 ft | 394 kts | 272° |
| 2026-05-06 19:34 | 36.66705 | 3.44101 | 39099 ft | 396 kts | 273° |
| 2026-05-06 19:34 | 36.67076 | 3.40703 | 39273 ft | 397 kts | 273° |
| 2026-05-06 19:35 | 36.67444 | 3.37303 | 39394 ft | 399 kts | 273° |
| 2026-05-06 19:35 | 36.67811 | 3.33865 | 39459 ft | 402 kts | 273° |
| 2026-05-06 19:35 | 36.68542 | 3.26924 | 39583 ft | 406 kts | 273° |
| 2026-05-06 19:36 | 36.68880 | 3.19974 | 39613 ft | 405 kts | 264° |
| 2026-05-06 19:36 | 36.68425 | 3.12978 | 39685 ft | 405 kts | 262° |
| 2026-05-06 19:37 | 36.67829 | 3.06001 | 39766 ft | 406 kts | 262° |
| 2026-05-06 19:37 | 36.67212 | 2.99008 | 39838 ft | 407 kts | 262° |
| 2026-05-06 19:38 | 36.66605 | 2.92008 | 39921 ft | 407 kts | 262° |
| 2026-05-06 19:38 | 36.66006 | 2.85054 | 39937 ft | 405 kts | 262° |
| 2026-05-06 19:39 | 36.65404 | 2.78104 | 39938 ft | 405 kts | 262° |
| 2026-05-06 19:39 | 36.64804 | 2.71213 | 39933 ft | 394 kts | 262° |
| 2026-05-06 19:40 | 36.64216 | 2.64522 | 39945 ft | 392 kts | 262° |
| 2026-05-06 19:40 | 36.63616 | 2.57759 | 39936 ft | 394 kts | 262° |
| 2026-05-06 19:41 | 36.63014 | 2.50998 | 39937 ft | 394 kts | 262° |
| 2026-05-06 19:41 | 36.62406 | 2.44218 | 39938 ft | 394 kts | 262° |
| 2026-05-06 19:42 | 36.61797 | 2.37458 | 39940 ft | 394 kts | 262° |
| 2026-05-06 19:42 | 36.61185 | 2.30717 | 39941 ft | 394 kts | 262° |
| 2026-05-06 19:43 | 36.60567 | 2.23957 | 39945 ft | 394 kts | 261° |
| 2026-05-06 19:43 | 36.59377 | 2.17343 | 39943 ft | 392 kts | 250° |
| 2026-05-06 19:44 | 36.57393 | 2.11035 | 39928 ft | 393 kts | 248° |
| 2026-05-06 19:44 | 36.55277 | 2.04815 | 39929 ft | 393 kts | 248° |
| 2026-05-06 19:45 | 36.53134 | 1.98571 | 39928 ft | 394 kts | 248° |
| 2026-05-06 19:45 | 36.51002 | 1.92311 | 39925 ft | 393 kts | 248° |
| 2026-05-06 19:46 | 36.48887 | 1.86098 | 39930 ft | 394 kts | 248° |
| 2026-05-06 19:46 | 36.46757 | 1.79838 | 39928 ft | 391 kts | 248° |
| 2026-05-06 19:47 | 36.44642 | 1.73644 | 39929 ft | 389 kts | 248° |
| 2026-05-06 19:47 | 36.42523 | 1.67455 | 39928 ft | 389 kts | 248° |
| 2026-05-06 19:48 | 36.40404 | 1.61291 | 39912 ft | 388 kts | 248° |
| 2026-05-06 19:48 | 36.38300 | 1.55148 | 39919 ft | 389 kts | 248° |
| 2026-05-06 19:49 | 36.36180 | 1.48985 | 39928 ft | 390 kts | 248° |
| 2026-05-06 19:49 | 36.34083 | 1.42767 | 39908 ft | 391 kts | 248° |
| 2026-05-06 19:50 | 36.32009 | 1.36554 | 39920 ft | 390 kts | 248° |
| 2026-05-06 19:50 | 36.29939 | 1.30379 | 39906 ft | 390 kts | 248° |
| 2026-05-06 19:51 | 36.27853 | 1.24183 | 39905 ft | 390 kts | 248° |
| 2026-05-06 19:51 | 36.25755 | 1.17977 | 39906 ft | 391 kts | 248° |
| 2026-05-06 19:52 | 36.23660 | 1.11791 | 39905 ft | 389 kts | 248° |
| 2026-05-06 19:52 | 36.21591 | 1.05687 | 39911 ft | 386 kts | 248° |
| 2026-05-06 19:53 | 36.19517 | 0.99583 | 39916 ft | 385 kts | 248° |
| 2026-05-06 19:53 | 36.17439 | 0.93478 | 39915 ft | 385 kts | 248° |
| 2026-05-06 19:54 | 36.15362 | 0.87389 | 39908 ft | 385 kts | 248° |
| 2026-05-06 19:54 | 36.13276 | 0.81287 | 39907 ft | 385 kts | 248° |
| 2026-05-06 19:55 | 36.11201 | 0.75231 | 39924 ft | 385 kts | 248° |
| 2026-05-06 19:55 | 36.09106 | 0.69126 | 39912 ft | 386 kts | 248° |
| 2026-05-06 19:56 | 36.07011 | 0.63036 | 39915 ft | 386 kts | 248° |
| 2026-05-06 19:56 | 36.04910 | 0.56938 | 39914 ft | 386 kts | 248° |
| 2026-05-06 19:57 | 36.02820 | 0.50877 | 39908 ft | 386 kts | 247° |
| 2026-05-06 19:57 | 36.00708 | 0.44779 | 39895 ft | 386 kts | 248° |
| 2026-05-06 19:58 | 35.98597 | 0.38694 | 39914 ft | 386 kts | 247° |
| 2026-05-06 19:58 | 35.96483 | 0.32605 | 40093 ft | 388 kts | 247° |
| 2026-05-06 19:59 | 35.94352 | 0.26483 | 40230 ft | 394 kts | 247° |
| 2026-05-06 19:59 | 35.92171 | 0.20233 | 40359 ft | 399 kts | 247° |
| 2026-05-06 20:00 | 35.89964 | 0.13916 | 40461 ft | 403 kts | 247° |
| 2026-05-06 20:00 | 35.87712 | 0.07539 | 40497 ft | 407 kts | 246° |
| 2026-05-06 20:01 | 35.85411 | 0.01145 | 40567 ft | 409 kts | 246° |
| 2026-05-06 20:01 | 35.83112 | -0.05238 | 40606 ft | 411 kts | 246° |
| 2026-05-06 20:02 | 35.80797 | -0.11671 | 40660 ft | 412 kts | 246° |
| 2026-05-06 20:02 | 35.78473 | -0.18123 | 40728 ft | 413 kts | 246° |
| 2026-05-06 20:03 | 35.76144 | -0.24577 | 40804 ft | 413 kts | 246° |
| 2026-05-06 20:03 | 35.73828 | -0.30980 | 40893 ft | 411 kts | 246° |
| 2026-05-06 20:04 | 35.71513 | -0.37368 | 40911 ft | 408 kts | 246° |
| 2026-05-06 20:04 | 35.69199 | -0.43742 | 40910 ft | 408 kts | 246° |
| 2026-05-06 20:05 | 35.66885 | -0.50099 | 40912 ft | 408 kts | 246° |
| 2026-05-06 20:05 | 35.64582 | -0.56417 | 40911 ft | 408 kts | 246° |
| 2026-05-06 20:06 | 35.62246 | -0.62760 | 40909 ft | 408 kts | 244° |
| 2026-05-06 20:06 | 35.59231 | -0.68670 | 40911 ft | 410 kts | 236° |
| 2026-05-06 20:07 | 35.55780 | -0.74234 | 40912 ft | 411 kts | 235° |
| 2026-05-06 20:07 | 35.52267 | -0.79716 | 40917 ft | 412 kts | 234° |
| 2026-05-06 20:08 | 35.48730 | -0.85231 | 40914 ft | 411 kts | 234° |
| 2026-05-06 20:08 | 35.45215 | -0.90728 | 40917 ft | 408 kts | 234° |
| 2026-05-06 20:09 | 35.41721 | -0.96199 | 40927 ft | 408 kts | 234° |
| 2026-05-06 20:09 | 35.38245 | -1.01635 | 40927 ft | 408 kts | 234° |
| 2026-05-06 20:10 | 35.34755 | -1.07085 | 40922 ft | 407 kts | 234° |
| 2026-05-06 20:10 | 35.31254 | -1.12541 | 40926 ft | 408 kts | 234° |
| 2026-05-06 20:11 | 35.27752 | -1.17991 | 40929 ft | 409 kts | 234° |
| 2026-05-06 20:11 | 35.26587 | -1.19802 | 40928 ft | 410 kts | 234° |
| 2026-05-06 20:12 | 35.25379 | -1.21678 | 40925 ft | 411 kts | 234° |
| 2026-05-06 20:12 | 35.21846 | -1.27161 | 40930 ft | 410 kts | 234° |
| 2026-05-06 20:13 | 35.18322 | -1.32621 | 40933 ft | 409 kts | 234° |
| 2026-05-06 20:13 | 35.14797 | -1.38074 | 40917 ft | 409 kts | 234° |
| 2026-05-06 20:14 | 35.11294 | -1.43484 | 40914 ft | 409 kts | 234° |
| 2026-05-06 20:14 | 35.07779 | -1.48906 | 40914 ft | 409 kts | 234° |
| 2026-05-06 20:15 | 35.04250 | -1.54341 | 40915 ft | 409 kts | 234° |
| 2026-05-06 20:15 | 35.00729 | -1.59755 | 40919 ft | 409 kts | 234° |
| 2026-05-06 20:16 | 34.97183 | -1.65198 | 40910 ft | 409 kts | 234° |
| 2026-05-06 20:16 | 34.93688 | -1.70554 | 40924 ft | 407 kts | 234° |
| 2026-05-06 20:17 | 34.90159 | -1.75955 | 40930 ft | 407 kts | 234° |
| 2026-05-06 20:17 | 34.86645 | -1.81326 | 40941 ft | 407 kts | 234° |
| 2026-05-06 20:18 | 34.83104 | -1.86705 | 40942 ft | 407 kts | 233° |
| 2026-05-06 20:18 | 34.79551 | -1.91985 | 40950 ft | 407 kts | 235° |
| 2026-05-06 20:19 | 34.76716 | -1.97923 | 40938 ft | 407 kts | 247° |
| 2026-05-06 20:19 | 34.74821 | -2.04399 | 40936 ft | 409 kts | 250° |
| 2026-05-06 20:20 | 34.73119 | -2.10951 | 40941 ft | 409 kts | 251° |
| 2026-05-06 20:20 | 34.71428 | -2.17524 | 40896 ft | 409 kts | 251° |
| 2026-05-06 20:21 | 34.69716 | -2.24087 | 40940 ft | 406 kts | 250° |
| 2026-05-06 20:21 | 34.68002 | -2.30579 | 40942 ft | 405 kts | 250° |
| 2026-05-06 20:22 | 34.66268 | -2.37112 | 40932 ft | 407 kts | 250° |
| 2026-05-06 20:22 | 34.64540 | -2.43616 | 40933 ft | 408 kts | 250° |
| 2026-05-06 20:23 | 34.62797 | -2.50164 | 40921 ft | 408 kts | 250° |
| 2026-05-06 20:23 | 34.61055 | -2.56693 | 40922 ft | 408 kts | 250° |
| 2026-05-06 20:24 | 34.59304 | -2.63238 | 40916 ft | 408 kts | 250° |
| 2026-05-06 20:24 | 34.57530 | -2.69723 | 40924 ft | 409 kts | 250° |
| 2026-05-06 20:25 | 34.55722 | -2.76282 | 40915 ft | 411 kts | 250° |
| 2026-05-06 20:25 | 34.53941 | -2.82839 | 40915 ft | 411 kts | 250° |
| 2026-05-06 20:26 | 34.52178 | -2.89363 | 40909 ft | 402 kts | 250° |
| 2026-05-06 20:26 | 34.50445 | -2.95759 | 40911 ft | 398 kts | 250° |
| 2026-05-06 20:27 | 34.48722 | -3.02087 | 40919 ft | 398 kts | 250° |
| 2026-05-06 20:27 | 34.46990 | -3.08433 | 40920 ft | 399 kts | 250° |
| 2026-05-06 20:28 | 34.45242 | -3.14820 | 40920 ft | 400 kts | 250° |
| 2026-05-06 20:28 | 34.43491 | -3.21209 | 40920 ft | 400 kts | 250° |
| 2026-05-06 20:29 | 34.41736 | -3.27595 | 40919 ft | 399 kts | 250° |
| 2026-05-06 20:29 | 34.40001 | -3.33897 | 40919 ft | 399 kts | 250° |
| 2026-05-06 20:30 | 34.37363 | -3.43447 | 40938 ft | 399 kts | 250° |
| 2026-05-06 20:31 | 34.35599 | -3.49837 | 40924 ft | 402 kts | 250° |
| 2026-05-06 20:31 | 34.33855 | -3.56285 | 40925 ft | 404 kts | 250° |
| 2026-05-06 20:32 | 34.32131 | -3.62672 | 40924 ft | 404 kts | 250° |
| 2026-05-06 20:32 | 34.30382 | -3.69127 | 40930 ft | 404 kts | 250° |
| 2026-05-06 20:33 | 34.28624 | -3.75582 | 40932 ft | 404 kts | 250° |
| 2026-05-06 20:33 | 34.26864 | -3.82030 | 40943 ft | 404 kts | 250° |
| 2026-05-06 20:34 | 34.25110 | -3.88439 | 40936 ft | 408 kts | 250° |
| 2026-05-06 20:34 | 34.23319 | -3.94967 | 40938 ft | 410 kts | 250° |
| 2026-05-06 20:35 | 34.21531 | -4.01474 | 40939 ft | 410 kts | 250° |
| 2026-05-06 20:35 | 34.19731 | -4.08007 | 40938 ft | 410 kts | 250° |
| 2026-05-06 20:36 | 34.17934 | -4.14512 | 40939 ft | 410 kts | 249° |
| 2026-05-06 20:36 | 34.16128 | -4.20998 | 40936 ft | 411 kts | 249° |
| 2026-05-06 20:37 | 34.14253 | -4.27512 | 40930 ft | 413 kts | 249° |
| 2026-05-06 20:37 | 34.12342 | -4.34106 | 40943 ft | 419 kts | 249° |
| 2026-05-06 20:38 | 34.10424 | -4.40752 | 40937 ft | 419 kts | 249° |
| 2026-05-06 20:38 | 34.08502 | -4.47395 | 40936 ft | 419 kts | 249° |
| 2026-05-06 20:39 | 34.06591 | -4.53987 | 40935 ft | 419 kts | 249° |
| 2026-05-06 20:39 | 34.04661 | -4.60633 | 40942 ft | 421 kts | 249° |
| 2026-05-06 20:40 | 34.02717 | -4.67313 | 40932 ft | 423 kts | 249° |
| 2026-05-06 20:40 | 34.00777 | -4.73962 | 40957 ft | 423 kts | 249° |
| 2026-05-06 20:41 | 33.98820 | -4.80658 | 40960 ft | 423 kts | 249° |
| 2026-05-06 20:41 | 33.96860 | -4.87350 | 40962 ft | 424 kts | 249° |
| 2026-05-06 20:42 | 33.94893 | -4.94048 | 40962 ft | 424 kts | 249° |
| 2026-05-06 20:42 | 33.93004 | -5.00775 | 40973 ft | 425 kts | 253° |
| 2026-05-06 20:43 | 33.91858 | -5.07724 | 40963 ft | 427 kts | 257° |
| 2026-05-06 20:43 | 33.90846 | -5.14773 | 40955 ft | 427 kts | 257° |
| 2026-05-06 20:44 | 33.89839 | -5.21826 | 40948 ft | 428 kts | 257° |
| 2026-05-06 20:44 | 33.88830 | -5.28877 | 40935 ft | 428 kts | 257° |
| 2026-05-06 20:45 | 33.87819 | -5.35915 | 40938 ft | 428 kts | 257° |
| 2026-05-06 20:45 | 33.86804 | -5.42949 | 40939 ft | 430 kts | 257° |
| 2026-05-06 20:46 | 33.85778 | -5.50034 | 40938 ft | 431 kts | 257° |
| 2026-05-06 20:46 | 33.84744 | -5.57142 | 40939 ft | 431 kts | 257° |
| 2026-05-06 20:47 | 33.83708 | -5.64238 | 40931 ft | 431 kts | 257° |
| 2026-05-06 20:47 | 33.82674 | -5.71290 | 40939 ft | 431 kts | 257° |
| 2026-05-06 20:48 | 33.81627 | -5.78399 | 40914 ft | 434 kts | 257° |
| 2026-05-06 20:48 | 33.80574 | -5.85533 | 40785 ft | 433 kts | 257° |
| 2026-05-06 20:48 | 33.80047 | -5.89083 | 40495 ft | 428 kts | 257° |
| 2026-05-06 20:49 | 33.79526 | -5.92591 | 39858 ft | 426 kts | 257° |
| 2026-05-06 20:49 | 33.79006 | -5.96084 | 39249 ft | 423 kts | 256° |
| 2026-05-06 20:49 | 33.78497 | -5.99497 | 38529 ft | 415 kts | 256° |
| 2026-05-06 20:49 | 33.77990 | -6.02892 | 37298 ft | 410 kts | 256° |
| 2026-05-06 20:50 | 33.77492 | -6.06227 | 36437 ft | 400 kts | 255° |
| 2026-05-06 20:50 | 33.77011 | -6.09452 | 35806 ft | 385 kts | 255° |
| 2026-05-06 20:50 | 33.76538 | -6.12597 | 35174 ft | 381 kts | 255° |
| 2026-05-06 20:50 | 33.76062 | -6.15737 | 34492 ft | 386 kts | 255° |
| 2026-05-06 20:51 | 33.75578 | -6.18922 | 33732 ft | 388 kts | 255° |
| 2026-05-06 20:51 | 33.75092 | -6.22121 | 32932 ft | 390 kts | 255° |
| 2026-05-06 20:51 | 33.74611 | -6.25289 | 32191 ft | 391 kts | 256° |
| 2026-05-06 20:51 | 33.74119 | -6.28517 | 31409 ft | 398 kts | 256° |
| 2026-05-06 20:52 | 33.73614 | -6.31824 | 30600 ft | 407 kts | 256° |
| 2026-05-06 20:52 | 33.73100 | -6.35211 | 29753 ft | 416 kts | 257° |
| 2026-05-06 20:52 | 33.72585 | -6.38651 | 28874 ft | 420 kts | 257° |
| 2026-05-06 20:52 | 33.72070 | -6.42098 | 28283 ft | 418 kts | 257° |
| 2026-05-06 20:53 | 33.71558 | -6.45511 | 27666 ft | 414 kts | 257° |
| 2026-05-06 20:53 | 33.71049 | -6.48895 | 27076 ft | 411 kts | 258° |
| 2026-05-06 20:53 | 33.70540 | -6.52269 | 26451 ft | 410 kts | 258° |
| 2026-05-06 20:53 | 33.70032 | -6.55632 | 25845 ft | 408 kts | 258° |
| 2026-05-06 20:54 | 33.69533 | -6.58925 | 25239 ft | 405 kts | 258° |
| 2026-05-06 20:54 | 33.69018 | -6.62236 | 24650 ft | 402 kts | 258° |
| 2026-05-06 20:54 | 33.68391 | -6.65468 | 24180 ft | 395 kts | 252° |
| 2026-05-06 20:54 | 33.67404 | -6.68556 | 23167 ft | 401 kts | 244° |
| 2026-05-06 20:55 | 33.65919 | -6.71429 | 21949 ft | 411 kts | 233° |
| 2026-05-06 20:55 | 33.63940 | -6.73941 | 20948 ft | 412 kts | 225° |
| 2026-05-06 20:55 | 33.61872 | -6.76244 | 19566 ft | 403 kts | 224° |
| 2026-05-06 20:55 | 33.59810 | -6.78499 | 17987 ft | 402 kts | 224° |
| 2026-05-06 20:56 | 33.57756 | -6.80745 | 16449 ft | 396 kts | 223° |
| 2026-05-06 20:56 | 33.55787 | -6.82902 | 15561 ft | 380 kts | 223° |
| 2026-05-06 20:56 | 33.53828 | -6.85050 | 15084 ft | 382 kts | 223° |
| 2026-05-06 20:56 | 33.51898 | -6.87167 | 14750 ft | 372 kts | 223° |
| 2026-05-06 20:57 | 33.50007 | -6.89242 | 14298 ft | 365 kts | 223° |
| 2026-05-06 20:57 | 33.48152 | -6.91278 | 13782 ft | 361 kts | 223° |
| 2026-05-06 20:57 | 33.46321 | -6.93286 | 13413 ft | 348 kts | 223° |
| 2026-05-06 20:57 | 33.44605 | -6.95165 | 12981 ft | 323 kts | 223° |
| 2026-05-06 20:58 | 33.43006 | -6.96915 | 12564 ft | 301 kts | 224° |
| 2026-05-06 20:58 | 33.41513 | -6.98550 | 12192 ft | 281 kts | 224° |
| 2026-05-06 20:58 | 33.40116 | -7.00079 | 11872 ft | 263 kts | 224° |
| 2026-05-06 20:58 | 33.38817 | -7.01499 | 11488 ft | 251 kts | 224° |
| 2026-05-06 20:59 | 33.37548 | -7.02889 | 11012 ft | 243 kts | 224° |
| 2026-05-06 20:59 | 33.36315 | -7.04237 | 10814 ft | 239 kts | 224° |
| 2026-05-06 20:59 | 33.35086 | -7.05582 | 10504 ft | 240 kts | 224° |
| 2026-05-06 20:59 | 33.33855 | -7.06929 | 9899 ft | 239 kts | 224° |
| 2026-05-06 21:00 | 33.32636 | -7.08260 | 9363 ft | 235 kts | 224° |
| 2026-05-06 21:00 | 33.31435 | -7.09572 | 8767 ft | 234 kts | 224° |
| 2026-05-06 21:00 | 33.30235 | -7.10884 | 8142 ft | 233 kts | 223° |
| 2026-05-06 21:00 | 33.29044 | -7.12184 | 7551 ft | 232 kts | 223° |
| 2026-05-06 21:01 | 33.27852 | -7.13484 | 6974 ft | 232 kts | 223° |
| 2026-05-06 21:01 | 33.26678 | -7.14765 | 6412 ft | 232 kts | 223° |
| 2026-05-06 21:01 | 33.25486 | -7.16062 | 5829 ft | 231 kts | 223° |
| 2026-05-06 21:01 | 33.24303 | -7.17348 | 5268 ft | 230 kts | 223° |
| 2026-05-06 21:02 | 33.23112 | -7.18645 | 5009 ft | 234 kts | 223° |
| 2026-05-06 21:02 | 33.21943 | -7.20002 | 4967 ft | 235 kts | 232° |
| 2026-05-06 21:02 | 33.21145 | -7.21693 | 4971 ft | 234 kts | 247° |
| 2026-05-06 21:02 | 33.20535 | -7.23493 | 4971 ft | 235 kts | 249° |
| 2026-05-06 21:03 | 33.19949 | -7.25309 | 4971 ft | 235 kts | 249° |
| 2026-05-06 21:03 | 33.19365 | -7.27136 | 4983 ft | 236 kts | 249° |
| 2026-05-06 21:03 | 33.18791 | -7.28925 | 4991 ft | 229 kts | 249° |
| 2026-05-06 21:03 | 33.18245 | -7.30625 | 4855 ft | 213 kts | 249° |
| 2026-05-06 21:04 | 33.17718 | -7.32239 | 4493 ft | 206 kts | 250° |
| 2026-05-06 21:04 | 33.17184 | -7.33816 | 4110 ft | 205 kts | 249° |
| 2026-05-06 21:04 | 33.16636 | -7.35400 | 4009 ft | 208 kts | 249° |
| 2026-05-06 21:04 | 33.16089 | -7.36985 | 4004 ft | 208 kts | 249° |
| 2026-05-06 21:05 | 33.15534 | -7.38579 | 4003 ft | 207 kts | 249° |
| 2026-05-06 21:05 | 33.14986 | -7.40168 | 4002 ft | 207 kts | 249° |
| 2026-05-06 21:05 | 33.14443 | -7.41754 | 4001 ft | 206 kts | 250° |
| 2026-05-06 21:05 | 33.13902 | -7.43299 | 3993 ft | 199 kts | 249° |
| 2026-05-06 21:06 | 33.13377 | -7.44808 | 3992 ft | 194 kts | 250° |
| 2026-05-06 21:06 | 33.13028 | -7.46252 | 3966 ft | 175 kts | 274° |
| 2026-05-06 21:06 | 33.13374 | -7.47635 | 4067 ft | 188 kts | 302° |
| 2026-05-06 21:06 | 33.14163 | -7.49048 | 4020 ft | 218 kts | 308° |
| 2026-05-06 21:07 | 33.15081 | -7.50509 | 3998 ft | 213 kts | 309° |
| 2026-05-06 21:07 | 33.15986 | -7.51741 | 3988 ft | 184 kts | 322° |
| 2026-05-06 21:07 | 33.17026 | -7.52418 | 3982 ft | 158 kts | 343° |
| 2026-05-06 21:07 | 33.18031 | -7.52785 | 3988 ft | 149 kts | 345° |
| 2026-05-06 21:08 | 33.19033 | -7.53133 | 3956 ft | 150 kts | 345° |
| 2026-05-06 21:08 | 33.20022 | -7.53479 | 3769 ft | 147 kts | 345° |
| 2026-05-06 21:08 | 33.20996 | -7.53816 | 3562 ft | 144 kts | 346° |
| 2026-05-06 21:08 | 33.21935 | -7.54137 | 3359 ft | 142 kts | 346° |
| 2026-05-06 21:09 | 33.22887 | -7.54463 | 3170 ft | 143 kts | 346° |
| 2026-05-06 21:09 | 33.23837 | -7.54788 | 2962 ft | 141 kts | 346° |
| 2026-05-06 21:09 | 33.24756 | -7.55103 | 2779 ft | 136 kts | 346° |
| 2026-05-06 21:09 | 33.25659 | -7.55413 | 2599 ft | 135 kts | 346° |
| 2026-05-06 21:10 | 33.26559 | -7.55720 | 2451 ft | 133 kts | 346° |
| 2026-05-06 21:10 | 33.27471 | -7.56038 | 2180 ft | 137 kts | 346° |
| 2026-05-06 21:10 | 33.28370 | -7.56355 | 1935 ft | 131 kts | 346° |
| 2026-05-06 21:10 | 33.29252 | -7.56661 | 1718 ft | 140 kts | 345° |
| 2026-05-06 21:11 | 33.30178 | -7.56974 | 1470 ft | 136 kts | 344° |
| 2026-05-06 21:11 | 33.31066 | -7.57282 | 1268 ft | 132 kts | 344° |
| 2026-05-06 21:11 | 33.31943 | -7.57579 | 1070 ft | 130 kts | 343° |
| 2026-05-06 21:11 | 33.32808 | -7.57870 | 907 ft | 129 kts | 345° |
| 2026-05-06 21:12 | 33.33674 | -7.58161 | 814 ft | 131 kts | 344° |
| 2026-05-06 21:12 | 33.34551 | -7.58460 | 725 ft | 131 kts | 344° |
| 2026-05-06 21:12 | 33.35420 | -7.58758 | 659 ft | 124 kts | 344° |
| 2026-05-06 21:12 | 33.36075 | -7.58980 | 657 ft | 62 kts | 344° |
| 2026-05-06 21:13 | 33.36237 | -7.59036 | 657 ft | 8 kts | 344° |
| 2026-05-06 21:13 | 33.36316 | -7.59062 | 658 ft | 19 kts | 347° |
| 2026-05-06 21:13 | 33.36455 | -7.59078 | 657 ft | 22 kts | 0° |
| 2026-05-06 21:13 | 33.36613 | -7.59053 | 657 ft | 23 kts | 10° |
| 2026-05-06 21:14 | 33.36746 | -7.59005 | 658 ft | 1 kts | 30° |
| 2026-05-06 21:14 | 33.36791 | -7.58936 | 658 ft | 26 kts | 70° |
| 2026-05-06 21:14 | 33.36841 | -7.58697 | 658 ft | 22 kts | 76° |
| 2026-05-06 21:14 | 33.36869 | -7.58564 | 659 ft | 1 kts | 76° |
| 2026-05-06 21:15 | 33.36871 | -7.58551 | 659 ft | 4 kts | 76° |
| 2026-05-06 21:15 | 33.36890 | -7.58468 | 659 ft | 14 kts | 74° |
| 2026-05-06 21:15 | 33.36920 | -7.58342 | 659 ft | 17 kts | 74° |
| 2026-05-06 21:15 | 33.36981 | -7.58242 | 659 ft | 13 kts | 28° |
| 2026-05-06 21:16 | 33.37019 | -7.58186 | 659 ft | 9 kts | 66° |
| 2026-05-06 21:16 | 33.37028 | -7.58156 | 659 ft | 5 kts | 71° |
| 2026-05-06 21:16 | 33.37030 | -7.58150 | 659 ft | 0 kts | 72° |